Accueil
METAR-TAF:

METAR-TAF

Aéroports :

Middle Wallop, Angleterre

Army Air Corps Middle Wallop

latitude: 51-09N, longitude: 001-34W, altitude: 91 m

Observation

Le bulletin a été fait il y a 52 minutes, à 14:50 UTC
Vent 10 kt de sud/sud-est
Température 19°C
Humidité 64%
Pression 1018 hPa
Visibilité: 8000 m

METAR: EGVP 211450Z AUTO 15010KT 8000 // BKN080/// 19/12 Q1018

Heure: 16:42 (15:42 UTC)

Prévision

Le bulletin a été fait il y a 26 heures et 8 minutes, à 13:34 UTC
Prévision valable du 20 à 15 UTC au 20 à 24 UTC
Vent 5 kt de nord/nord-ouest
Visibilité 10 km ou plus
Quelques nuages à une hauteur de 4000 ft

TAF: EGVP 201334Z 2015/2024 34005KT 9999 FEW040

Observations et prévisions météorologiques de plus de 4000 aéroports (messages METAR et TAF).

Les stations disponibles sont représentées par des disques jaunes et rouges sur la carte.

Passer la souris dessus pour voir le nom de la station.

Cliquer dessus pour voir les observations et prévisions météorologiques.

Pour changer de carte: cliquez sur les boutons verts avec une croix noire pour zoomer, sur le bouton vert avec un tiret pour effectuer un zoom arrière, ou sur les flèches vertes pour les cartes adjacentes.


METAR-TAF: